• Join FlightAware (Why Join?)
  • Login
  • US Flag 
05:59PM EDT


 

Airport Tracker/Info


-or-


 

Live Flight TrackerFlight Track Log ✈ FLG3702 ✈ 07-May-2013 ✈ KHPN - KDTW

Flight Track Log - Related Links

Times and Time Zones

All times are in EDT time to prevent confusion due to time zone crossing. See the FLG3702 flight status page for this flight to view local times or setup timezone preferences in your user account.

Time Position Orientation Groundspeed Altitude Reporting Facility
EDT Latitude Longitude Course Direction KTS MPH feet Rate Location/Type
04:34PM 41.0500 -73.7667 270° West 207 238 3,500  Level New York TRACON
04:35PM 41.1000 -73.8333 315° West 259 298 5,900 2,520 Climbing New York TRACON
04:36PM 41.1283 -73.9086 297° West 298 343 8,500 2,760 Climbing New York Center
04:37PM 41.1839 -74.0078 307° West 303 349 11,200 2,280 Climbing New York Center
04:38PM 41.2358 -74.0903 310° West 321 369 13,100 1,800 Climbing New York Center
04:39PM 41.3033 -74.2039 308° West 348 400 14,900 1,380 Climbing New York Center
04:40PM 41.3392 -74.3247 292° West 370 426 15,900 840 Climbing New York Center
04:41PM 41.3808 -74.4650 292° West 384 442 16,600 960 Climbing New York Center
04:42PM 41.4181 -74.5997 290° West 389 448 17,900 1,260 Climbing New York Center
04:43PM 41.4536 -74.7236 291° West 394 453 19,100 1,380 Climbing New York Center
04:44PM 41.4928 -74.8589 291° West 394 453 20,700 1,440 Climbing New York Center
04:45PM 41.5297 -74.9969 290° West 394 453 22,000 1,140 Climbing New York Center
04:46PM 41.5703 -75.1381 291° West 394 453 23,000 960 Climbing New York Center
04:47PM 41.6131 -75.2769 292° West 399 459 24,000 960 Climbing New York Center
04:48PM 41.6553 -75.4211 291° West 404 465 25,000 840 Climbing New York Center
04:49PM 41.6994 -75.5689 292° West 416 479 25,700 660 Climbing New York Center
04:50PM 41.7433 -75.7192 291° West 422 486 26,400 660 Climbing New York Center
04:51PM 41.7889 -75.8672 292° West 427 491 27,100 660 Climbing New York Center
04:52PM 41.8342 -76.0239 291° West 440 506 27,800 420 Climbing New York Center
04:53PM 41.8772 -76.1778 291° West 440 506 28,000 60 Climbing New York Center
04:54PM 41.9219 -76.3375 291° West 446 513 28,000  Level New York Center
04:56PM 42.0089 -76.6369 291° West 481 554 28,000  Level Cleveland Center
04:57PM 42.0539 -76.7964 291° West 476 548 28,000  Level Cleveland Center
04:58PM 42.1008 -76.9561 292° West 463 533 28,000  Level Cleveland Center
04:59PM 42.1433 -77.1133 290° West 458 527 28,000  Level Cleveland Center
05:00PM 42.1897 -77.2733 291° West 458 527 28,000  Level Cleveland Center
05:01PM 42.2314 -77.4281 290° West 458 527 28,000  Level Cleveland Center
05:02PM 42.2775 -77.5858 292° West 458 527 28,000  Level Cleveland Center
05:03PM 42.3292 -77.7408 294° West 453 521 28,000  Level Cleveland Center
05:04PM 42.3789 -77.8958 294° West 453 521 28,000  Level Cleveland Center
05:05PM 42.4283 -78.0514 293° West 448 516 28,000  Level Cleveland Center
05:06PM 42.4772 -78.2014 294° West 448 516 28,000  Level Cleveland Center
05:07PM 42.5264 -78.3575 293° West 448 516 28,000  Level Cleveland Center
05:08PM 42.5772 -78.5136 294° West 448 516 28,000  Level Cleveland Center
05:09PM 42.6258 -78.6700 293° West 448 516 28,000  Level Cleveland Center
05:10PM 42.6783 -78.8378 293° West 448 516 28,000  Level Cleveland Center
05:11PM 42.7181 -78.9950 289° West 448 516 28,000  Level Cleveland Center
05:12PM 42.7203 -79.1672 271° West 448 516 28,000  Level Cleveland Center
05:13PM 42.7181 -79.3342 269° West 448 516 28,000  Level Cleveland Center
05:14PM 42.7200 -79.5036 271° West 448 516 28,000  Level Cleveland Center
05:15PM 42.7172 -79.6733 269° West 448 516 28,000  Level Cleveland Center
05:16PM 42.7206 -79.8400 272° West 448 516 28,000  Level Cleveland Center
05:17PM 42.7131 -80.0153 267° West 448 516 28,000  Level Cleveland Center
05:18PM 42.7158 -80.1847 271° West 453 521 28,000  Level Cleveland Center
05:19PM 42.7122 -80.3514 268° West 453 521 28,000  Level Cleveland Center
05:20PM 42.7125 -80.5211 270° West 460 529 28,000 -120 Level Cleveland Center
05:21PM 42.7103 -80.6906 269° West 460 529 27,800 -600 Descending Cleveland Center
05:22PM 42.7058 -80.8375 268° West 455 524 26,900 -960 Descending Cleveland Center
05:23PM 42.6928 -81.0069 264° West 455 524 25,900 -1,020 Descending Cleveland Center
05:24PM 42.6756 -81.1622 261° West 440 506 24,900 -960 Descending Cleveland Center
05:25PM 42.6578 -81.3258 262° West 431 496 24,000 -480 Descending Cleveland Center
05:26PM 42.6381 -81.4806 260° West 423 487 24,000  Level Cleveland Center
05:27PM 42.6181 -81.6383 260° West 429 494 24,000 -900 Level Cleveland Center
05:28PM 42.5975 -81.8072 261° West 429 494 22,300 -1,980 Descending Cleveland Center
05:29PM 42.5792 -81.9619 261° West 429 494 20,100 -2,220 Descending Cleveland Center
05:30PM 42.5628 -82.1056 261° West 418 481 17,900 -2,160 Descending Cleveland Center
05:31PM 42.5442 -82.2458 260° West 400 460 15,800 -2,160 Descending Cleveland Center
05:31PM 42.5392 -82.2992 263° West 373 429 15,000 -2,220 Descending Cleveland Center
05:32PM 42.5275 -82.3836 259° West 370 426 13,700 -2,160 Descending Cleveland Center
05:32PM 42.5275 -82.3836 259° West 382 440 13,600 -1,620 Descending Cleveland Center
05:33PM 42.5106 -82.5183 260° West 361 415 12,100 -1,500 Descending Cleveland Center
05:33PM 42.5106 -82.5183 260° West 376 433 12,100 -120 Level Cleveland Center
05:34PM 42.4750 -82.6439 249° West 368 423 12,000 -60 Descending Cleveland Center
05:35PM 42.4269 -82.7689 243° Southwest 371 427 12,000  Level Cleveland Center
05:36PM 42.3828 -82.8911 244° Southwest 371 427 12,000  Level Cleveland Center
05:37PM 42.3383 -83.0242 246° West 358 412 12,000  Level Cleveland Center
05:38PM 42.3008 -83.1267 244° Southwest 354 407 12,000 -60 Level Cleveland Center
05:39PM 42.2450 -83.1889 220° Southwest 315 362 11,900 -1,680 Descending Cleveland Center
05:40PM 42.1608 -83.2275 199° South 292 336 8,700 -2,700 Descending Cleveland Center
05:41PM 42.0931 -83.2750 207° Southwest 283 326 6,600 -2,460 Descending Cleveland Center
05:42PM 42.0494 -83.3517 233° Southwest 260 299 3,300 -1,740 Descending Cleveland Center
05:43PM 42.0789 -83.4283 297° West 217 250 3,000 -360 Descending Cleveland Center